createdAt,value
2023-10-29T00:02:34.409Z,13.25
2023-10-29T00:07:38.288Z,13.28
2023-10-29T00:12:43.477Z,13.33
2023-10-29T00:17:52.949Z,13.34
2023-10-29T00:22:57.003Z,13.32
2023-10-29T00:28:00.799Z,13.40
2023-10-29T00:33:07.882Z,13.42
2023-10-29T00:38:12.326Z,13.42
2023-10-29T00:43:17.519Z,13.45
2023-10-29T00:48:24.836Z,13.51
2023-10-29T00:53:29.121Z,13.49
2023-10-29T00:58:33.679Z,13.51
2023-10-29T01:03:39.370Z,13.52
2023-10-29T01:08:48.496Z,13.51
2023-10-29T01:13:54.378Z,13.49
2023-10-29T01:19:01.043Z,13.47
2023-10-29T01:24:05.076Z,13.44
2023-10-29T01:29:11.248Z,13.41
2023-10-29T01:34:25.663Z,13.40
2023-10-29T01:39:31.681Z,13.37
2023-10-29T01:44:41.841Z,13.42
2023-10-29T01:49:48.334Z,13.44
2023-10-29T01:54:53.996Z,13.44
2023-10-29T01:59:58.760Z,13.47
2023-10-29T02:05:05.599Z,13.50
2023-10-29T02:10:13.910Z,13.52
2023-10-29T02:15:22.163Z,13.57
2023-10-29T02:20:27.863Z,13.58
2023-10-29T02:25:35.521Z,13.57
2023-10-29T02:30:41.229Z,13.55
2023-10-29T02:35:46.222Z,13.58
2023-10-29T02:40:52.156Z,13.58
2023-10-29T02:45:56.857Z,13.59
2023-10-29T02:51:04.747Z,13.63
2023-10-29T02:56:12.575Z,13.68
2023-10-29T03:01:18.303Z,13.70
2023-10-29T03:06:23.175Z,13.73
2023-10-29T03:11:28.647Z,13.78
2023-10-29T03:16:32.650Z,13.83
2023-10-29T03:21:36.652Z,13.87
2023-10-29T03:26:45.116Z,13.92
2023-10-29T03:31:51.862Z,13.96
2023-10-29T03:36:57.714Z,13.94
2023-10-29T03:42:10.658Z,13.98
2023-10-29T03:47:16.933Z,14.00
2023-10-29T03:52:22.011Z,13.99
2023-10-29T03:57:27.926Z,13.96
2023-10-29T04:02:33.844Z,13.99
2023-10-29T04:07:49.119Z,13.99
2023-10-29T04:13:00.395Z,14.03
2023-10-29T04:18:05.457Z,14.04
2023-10-29T04:23:09.579Z,14.02
2023-10-29T04:28:17.641Z,14.04
2023-10-29T04:33:22.558Z,14.02
2023-10-29T04:38:29.715Z,14.03
2023-10-29T04:43:36.342Z,14.09
2023-10-29T04:48:42.859Z,14.08
2023-10-29T04:53:49.625Z,14.09
2023-10-29T04:59:03.943Z,14.09
2023-10-29T05:04:08.611Z,14.11
2023-10-29T05:09:14.389Z,14.14
2023-10-29T05:14:22.597Z,14.13
2023-10-29T05:19:26.219Z,14.14
2023-10-29T05:24:31.510Z,14.14
2023-10-29T05:29:36.925Z,14.17
2023-10-29T05:34:45.714Z,14.18
2023-10-29T05:39:51.369Z,14.19
2023-10-29T05:45:00.069Z,14.21
2023-10-29T05:50:06.469Z,14.22
2023-10-29T05:55:14.005Z,14.26
2023-10-29T06:00:24.159Z,14.30
2023-10-29T06:05:30.919Z,14.30
2023-10-29T06:10:35.659Z,14.30
2023-10-29T06:16:12.250Z,14.39
2023-10-29T06:21:19.461Z,14.37
2023-10-29T06:26:23.885Z,14.38
2023-10-29T06:31:34.749Z,14.45
2023-10-29T06:36:43.209Z,14.49
2023-10-29T06:41:50.063Z,14.55
2023-10-29T06:46:58.716Z,14.56
2023-10-29T06:52:03.008Z,14.61
2023-10-29T06:57:09.132Z,14.58
2023-10-29T07:02:18.457Z,14.63
2023-10-29T07:07:26.982Z,14.69
2023-10-29T07:12:36.267Z,14.74
2023-10-29T07:17:42.585Z,14.87
2023-10-29T07:22:52.180Z,14.97
2023-10-29T07:28:09.642Z,15.08
2023-10-29T07:33:18.058Z,15.17
2023-10-29T07:38:27.062Z,15.28
2023-10-29T07:43:35.026Z,15.44
2023-10-29T07:48:44.495Z,15.56
2023-10-29T07:53:51.165Z,15.73
2023-10-29T07:58:56.546Z,15.80
2023-10-29T08:04:05.466Z,15.87
2023-10-29T08:09:10.450Z,15.87
2023-10-29T08:14:18.930Z,15.84
2023-10-29T08:19:25.275Z,15.81
2023-10-29T08:24:32.177Z,15.76
2023-10-29T08:29:37.572Z,15.76
2023-10-29T08:34:46.626Z,15.78
2023-10-29T08:40:18.163Z,15.79
2023-10-29T08:45:38.380Z,15.85
2023-10-29T08:50:46.720Z,15.97
2023-10-29T08:55:53.219Z,16.08
2023-10-29T09:01:09.607Z,16.19
2023-10-29T09:06:21.937Z,16.31
2023-10-29T09:11:34.742Z,16.42
2023-10-29T09:16:42.995Z,16.47
2023-10-29T09:21:57.599Z,16.54
2023-10-29T09:27:03.738Z,16.51
2023-10-29T09:32:09.385Z,16.50
2023-10-29T09:37:24.352Z,16.48
2023-10-29T09:42:33.527Z,16.47
2023-10-29T09:47:38.054Z,16.43
2023-10-29T09:52:45.755Z,16.42
2023-10-29T09:57:52.720Z,16.48
2023-10-29T10:03:02.389Z,16.62
2023-10-29T10:08:08.546Z,16.75
2023-10-29T10:13:16.198Z,16.88
2023-10-29T10:18:24.346Z,16.96
2023-10-29T10:24:04.695Z,17.14
2023-10-29T10:29:11.354Z,17.28
2023-10-29T10:34:17.292Z,17.38
2023-10-29T10:39:27.041Z,17.55
2023-10-29T10:44:36.288Z,17.67
2023-10-29T10:49:50.746Z,17.79
2023-10-29T10:54:58.183Z,17.87
2023-10-29T11:00:23.618Z,17.98
2023-10-29T11:05:31.922Z,18.03
2023-10-29T11:10:48.875Z,18.07
2023-10-29T11:15:54.147Z,18.16
2023-10-29T11:21:00.984Z,18.22
2023-10-29T11:26:38.150Z,18.27
2023-10-29T11:31:47.000Z,18.25
2023-10-29T11:36:54.725Z,18.26
2023-10-29T11:42:01.811Z,18.24
2023-10-29T11:47:08.665Z,18.26
2023-10-29T11:52:15.510Z,18.29
2023-10-29T11:57:26.232Z,18.31
2023-10-29T12:02:31.027Z,18.30
2023-10-29T12:07:36.468Z,18.27
2023-10-29T12:12:46.025Z,18.27
2023-10-29T12:17:50.708Z,18.21
2023-10-29T12:23:05.822Z,18.13
2023-10-29T12:28:15.751Z,18.12
2023-10-29T12:33:22.072Z,18.10
2023-10-29T12:38:40.435Z,18.16
2023-10-29T12:43:49.890Z,18.20
2023-10-29T12:49:02.452Z,18.24
2023-10-29T12:54:18.902Z,18.26
2023-10-29T12:59:40.385Z,18.22
2023-10-29T13:04:49.147Z,18.14
2023-10-29T13:09:55.988Z,18.14
2023-10-29T13:15:10.037Z,18.08
2023-10-29T13:20:19.807Z,18.12
2023-10-29T13:25:24.789Z,18.19
2023-10-29T13:30:55.976Z,18.20
2023-10-29T13:36:03.553Z,18.16
2023-10-29T13:41:14.460Z,18.14
2023-10-29T13:46:28.290Z,18.12
2023-10-29T13:51:33.749Z,18.09
2023-10-29T13:56:41.280Z,18.12
2023-10-29T14:02:04.035Z,18.07
2023-10-29T14:07:07.707Z,17.99
2023-10-29T14:12:14.352Z,18.00
2023-10-29T14:17:21.313Z,18.03
2023-10-29T14:22:27.328Z,17.99
2023-10-29T14:27:33.894Z,17.97
2023-10-29T14:32:45.095Z,17.96
2023-10-29T14:37:53.521Z,17.91
2023-10-29T14:43:20.670Z,17.88
2023-10-29T14:48:27.509Z,17.85
2023-10-29T14:53:33.693Z,17.76
2023-10-29T14:58:42.105Z,17.72
2023-10-29T15:03:54.757Z,17.59
2023-10-29T15:09:09.375Z,17.61
2023-10-29T15:14:18.508Z,17.59
2023-10-29T15:19:36.685Z,17.47
2023-10-29T15:24:41.530Z,17.39
2023-10-29T15:29:48.168Z,17.34
2023-10-29T15:34:54.007Z,17.36
2023-10-29T15:40:08.087Z,17.38
2023-10-29T15:45:15.837Z,17.36
2023-10-29T15:50:21.258Z,17.34
2023-10-29T15:55:25.817Z,17.30
2023-10-29T16:00:42.147Z,17.21
2023-10-29T16:05:52.923Z,17.12
2023-10-29T16:10:58.188Z,17.10
2023-10-29T16:16:02.596Z,17.11
2023-10-29T16:21:09.864Z,17.12
2023-10-29T16:26:24.438Z,17.10
2023-10-29T16:31:29.769Z,17.10
2023-10-29T16:36:39.914Z,17.05
2023-10-29T16:41:44.871Z,16.99
2023-10-29T16:46:51.779Z,16.96
2023-10-29T16:52:00.700Z,16.98
2023-10-29T16:57:09.356Z,16.98
2023-10-29T17:02:17.158Z,17.00
2023-10-29T17:07:27.237Z,17.04
2023-10-29T17:12:33.464Z,17.03
2023-10-29T17:17:44.686Z,17.07
2023-10-29T17:22:53.994Z,17.10
2023-10-29T17:28:06.321Z,17.12
2023-10-29T17:33:15.308Z,17.18
2023-10-29T17:38:20.656Z,17.20
2023-10-29T17:43:26.139Z,17.19
2023-10-29T17:48:30.741Z,17.21
2023-10-29T17:53:38.228Z,17.21
2023-10-29T17:58:48.385Z,17.21
2023-10-29T18:03:58.357Z,17.20
2023-10-29T18:09:22.508Z,17.18
2023-10-29T18:14:30.183Z,17.11
2023-10-29T18:19:35.514Z,17.00
2023-10-29T18:24:48.405Z,16.86
2023-10-29T18:29:55.883Z,16.72
2023-10-29T18:34:59.789Z,16.64
2023-10-29T18:40:07.016Z,16.53
2023-10-29T18:45:13.548Z,16.45
2023-10-29T18:50:17.536Z,16.29
2023-10-29T18:55:23.426Z,16.13
2023-10-29T19:00:29.277Z,16.03
2023-10-29T19:05:35.834Z,15.92
2023-10-29T19:10:57.132Z,15.78
2023-10-29T19:16:06.971Z,15.64
2023-10-29T19:21:15.756Z,15.55
2023-10-29T19:26:25.418Z,15.44
2023-10-29T19:31:36.692Z,15.38
2023-10-29T19:36:41.678Z,15.36
2023-10-29T19:41:53.729Z,15.31
2023-10-29T19:46:58.141Z,15.24
2023-10-29T19:52:03.441Z,15.18
2023-10-29T19:57:18.896Z,15.11
2023-10-29T20:02:23.057Z,15.03
2023-10-29T20:07:32.977Z,14.97
2023-10-29T20:12:39.577Z,14.96
2023-10-29T20:17:46.527Z,14.95
2023-10-29T20:23:03.965Z,14.93
2023-10-29T20:28:10.431Z,14.85
2023-10-29T20:33:22.832Z,14.84
2023-10-29T20:38:28.650Z,14.85
2023-10-29T20:43:48.341Z,14.81
2023-10-29T20:48:53.514Z,14.80
2023-10-29T20:54:05.470Z,14.80
2023-10-29T20:59:14.255Z,14.83
2023-10-29T21:04:24.700Z,14.85
2023-10-29T21:09:29.947Z,14.82
2023-10-29T21:14:40.269Z,14.76
2023-10-29T21:19:45.553Z,14.74
2023-10-29T21:24:52.650Z,14.69
2023-10-29T21:30:03.948Z,14.68
2023-10-29T21:35:09.578Z,14.66
2023-10-29T21:40:20.338Z,14.64
2023-10-29T21:45:28.429Z,14.64
2023-10-29T21:50:42.081Z,14.61
2023-10-29T21:55:47.128Z,14.59
2023-10-29T22:00:53.519Z,14.57
2023-10-29T22:06:03.998Z,14.57
2023-10-29T22:11:09.445Z,14.55
2023-10-29T22:16:18.087Z,14.53
2023-10-29T22:21:23.346Z,14.51
2023-10-29T22:26:29.933Z,14.49
2023-10-29T22:31:35.246Z,14.45
2023-10-29T22:36:41.062Z,14.45
2023-10-29T22:41:47.044Z,14.43
2023-10-29T22:46:54.293Z,14.47
2023-10-29T22:51:58.336Z,14.53
2023-10-29T22:57:02.926Z,14.57
2023-10-29T23:02:08.827Z,14.62
2023-10-29T23:07:13.833Z,14.64
2023-10-29T23:12:19.113Z,14.62
2023-10-29T23:17:28.978Z,14.60
2023-10-29T23:22:35.541Z,14.63
2023-10-29T23:27:41.293Z,14.62
2023-10-29T23:32:50.611Z,14.58
2023-10-29T23:37:55.945Z,14.58
2023-10-29T23:43:04.198Z,14.61
2023-10-29T23:48:12.540Z,14.61
2023-10-29T23:53:20.521Z,14.58
2023-10-29T23:58:25.188Z,14.56
